createdAt,value
2023-01-08T00:02:19.951Z,1.65
2023-01-08T00:05:08.099Z,1.65
2023-01-08T00:07:54.928Z,1.52
2023-01-08T00:10:41.891Z,1.60
2023-01-08T00:13:30.610Z,1.33
2023-01-08T00:16:23.911Z,1.40
2023-01-08T00:19:12.105Z,1.38
2023-01-08T00:21:58.843Z,1.70
2023-01-08T00:24:45.617Z,1.25
2023-01-08T00:27:32.182Z,1.38
2023-01-08T00:30:20.434Z,1.48
2023-01-08T00:33:07.757Z,1.70
2023-01-08T00:35:54.396Z,1.65
2023-01-08T00:38:41.848Z,1.30
2023-01-08T00:41:28.702Z,1.13
2023-01-08T00:44:15.507Z,1.30
2023-01-08T00:47:03.657Z,1.10
2023-01-08T00:49:50.553Z,1.10
2023-01-08T00:52:37.308Z,1.30
2023-01-08T00:55:24.188Z,1.30
2023-01-08T00:58:11.603Z,1.30
2023-01-08T01:01:01.387Z,1.23
2023-01-08T01:03:49.367Z,1.02
2023-01-08T01:06:36.058Z,1.10
2023-01-08T01:09:24.996Z,1.17
2023-01-08T01:12:11.808Z,1.08
2023-01-08T01:14:58.817Z,1.10
2023-01-08T01:17:50.829Z,1.10
2023-01-08T01:20:39.968Z,1.02
2023-01-08T01:23:26.688Z,1.27
2023-01-08T01:26:19.600Z,1.10
2023-01-08T01:29:06.729Z,1.30
2023-01-08T01:31:53.382Z,1.25
2023-01-08T01:34:40.408Z,1.20
2023-01-08T01:37:28.927Z,0.90
2023-01-08T01:40:15.549Z,1.02
2023-01-08T01:43:02.391Z,1.30
2023-01-08T01:45:49.464Z,1.30
2023-01-08T01:48:36.269Z,1.30
2023-01-08T01:51:24.057Z,1.23
2023-01-08T01:54:14.125Z,1.15
2023-01-08T01:57:01.774Z,0.98
2023-01-08T01:59:49.963Z,1.20
2023-01-08T02:02:37.135Z,1.20
2023-01-08T02:05:27.054Z,1.25
2023-01-08T02:08:22.747Z,1.20
2023-01-08T02:11:16.355Z,1.05
2023-01-08T02:14:14.205Z,0.90
2023-01-08T02:17:10.030Z,1.08
2023-01-08T02:20:07.297Z,1.20
2023-01-08T02:23:13.376Z,1.20
2023-01-08T02:26:17.140Z,1.10
2023-01-08T02:29:09.735Z,1.05
2023-01-08T02:31:57.490Z,1.10
2023-01-08T02:34:44.396Z,0.98
2023-01-08T02:37:31.431Z,1.23
2023-01-08T02:40:31.341Z,0.98
2023-01-08T02:43:27.547Z,1.10
2023-01-08T02:46:20.257Z,1.17
2023-01-08T02:49:12.095Z,1.08
2023-01-08T02:52:03.999Z,0.90
2023-01-08T02:54:51.797Z,1.10
2023-01-08T02:57:39.128Z,1.05
2023-01-08T03:00:28.974Z,1.15
2023-01-08T03:03:21.077Z,1.00
2023-01-08T03:06:13.899Z,0.95
2023-01-08T03:09:02.060Z,1.13
2023-01-08T03:11:57.715Z,1.20
2023-01-08T03:14:53.061Z,1.25
2023-01-08T03:17:46.980Z,1.13
2023-01-08T03:20:37.651Z,1.02
2023-01-08T03:23:27.770Z,0.93
2023-01-08T03:26:18.348Z,1.20
2023-01-08T03:29:10.695Z,1.17
2023-01-08T03:32:03.496Z,1.10
2023-01-08T03:34:55.626Z,1.38
2023-01-08T03:37:48.065Z,1.13
2023-01-08T03:40:44.427Z,1.00
2023-01-08T03:43:31.710Z,0.95
2023-01-08T03:46:28.094Z,1.55
2023-01-08T03:49:16.986Z,1.35
2023-01-08T03:52:05.391Z,1.08
2023-01-08T03:54:52.519Z,1.33
2023-01-08T03:57:39.540Z,1.25
2023-01-08T04:00:26.815Z,1.30
2023-01-08T04:03:13.605Z,1.27
2023-01-08T04:06:01.468Z,1.20
2023-01-08T04:08:50.464Z,1.27
2023-01-08T04:11:37.778Z,1.15
2023-01-08T04:14:24.386Z,1.48
2023-01-08T04:17:13.372Z,1.27
2023-01-08T04:20:00.713Z,1.13
2023-01-08T04:22:47.203Z,1.10
2023-01-08T04:25:35.511Z,1.42
2023-01-08T04:28:22.539Z,1.23
2023-01-08T04:31:09.970Z,0.98
2023-01-08T04:33:56.651Z,1.10
2023-01-08T04:36:43.649Z,1.15
2023-01-08T04:39:30.970Z,1.30
2023-01-08T04:42:19.046Z,1.25
2023-01-08T04:45:07.390Z,1.17
2023-01-08T04:47:57.851Z,1.00
2023-01-08T04:50:44.649Z,1.23
2023-01-08T04:53:35.539Z,1.10
2023-01-08T04:56:22.684Z,1.05
2023-01-08T04:59:10.962Z,1.05
2023-01-08T05:01:58.213Z,1.30
2023-01-08T05:04:45.023Z,1.10
2023-01-08T05:07:31.814Z,0.98
2023-01-08T05:10:18.926Z,1.05
2023-01-08T05:13:05.755Z,0.93
2023-01-08T05:15:54.013Z,0.80
2023-01-08T05:18:41.219Z,1.33
2023-01-08T05:21:28.071Z,1.10
2023-01-08T05:24:15.136Z,0.98
2023-01-08T05:27:01.872Z,1.30
2023-01-08T05:29:48.786Z,1.20
2023-01-08T05:32:36.937Z,1.20
2023-01-08T05:35:24.328Z,1.05
2023-01-08T05:38:10.839Z,0.90
2023-01-08T05:40:57.573Z,1.10
2023-01-08T05:43:44.459Z,0.90
2023-01-08T05:46:31.295Z,1.30
2023-01-08T05:49:19.804Z,1.05
2023-01-08T05:52:06.724Z,1.10
2023-01-08T05:54:53.538Z,1.17
2023-01-08T05:57:40.879Z,0.98
2023-01-08T06:00:28.041Z,0.75
2023-01-08T06:03:14.811Z,1.13
2023-01-08T06:06:05.273Z,0.90
2023-01-08T06:08:52.396Z,0.90
2023-01-08T06:11:39.134Z,0.98
2023-01-08T06:14:26.232Z,1.00
2023-01-08T06:17:14.939Z,1.00
2023-01-08T06:20:01.385Z,0.90
2023-01-08T06:22:49.523Z,0.90
2023-01-08T06:25:36.664Z,0.90
2023-01-08T06:28:24.216Z,0.82
2023-01-08T06:31:11.252Z,0.90
2023-01-08T06:33:58.268Z,0.90
2023-01-08T06:37:01.051Z,0.90
2023-01-08T06:39:49.873Z,1.00
2023-01-08T06:42:37.958Z,0.90
2023-01-08T06:45:25.892Z,0.60
2023-01-08T06:48:13.533Z,0.80
2023-01-08T06:51:02.170Z,0.65
2023-01-08T06:53:50.146Z,0.80
2023-01-08T06:56:52.605Z,1.27
2023-01-08T06:59:40.995Z,1.00
2023-01-08T07:02:28.007Z,1.00
2023-01-08T07:05:15.295Z,0.70
2023-01-08T07:08:04.867Z,0.60
2023-01-08T07:10:52.353Z,0.80
2023-01-08T07:13:40.935Z,0.95
2023-01-08T07:16:27.780Z,0.60
2023-01-08T07:19:14.832Z,0.93
2023-01-08T07:22:02.338Z,1.00
2023-01-08T07:24:49.423Z,1.00
2023-01-08T07:27:36.450Z,0.80
2023-01-08T07:30:30.196Z,0.60
2023-01-08T07:33:17.985Z,0.88
2023-01-08T07:36:06.911Z,0.70
2023-01-08T07:38:53.943Z,0.82
2023-01-08T07:41:40.743Z,0.45
2023-01-08T07:44:28.355Z,0.90
2023-01-08T07:47:17.137Z,0.55
2023-01-08T07:50:04.380Z,1.00
2023-01-08T07:52:51.806Z,1.08
2023-01-08T07:55:41.228Z,1.00
2023-01-08T07:58:59.337Z,0.95
2023-01-08T08:10:19.344Z,0.70
2023-01-08T08:13:06.729Z,1.10
2023-01-08T08:15:54.079Z,1.02
2023-01-08T08:18:41.272Z,0.70
2023-01-08T08:21:43.712Z,0.90
2023-01-08T08:28:05.357Z,0.70
2023-01-08T08:35:09.469Z,1.10
2023-01-08T08:41:08.204Z,0.80
2023-01-08T08:43:58.883Z,0.63
2023-01-08T08:46:45.640Z,0.70
2023-01-08T08:49:32.919Z,1.03
2023-01-08T08:52:19.652Z,0.50
2023-01-08T08:55:07.907Z,0.73
2023-01-08T08:57:54.759Z,1.00
2023-01-08T09:00:44.903Z,0.73
2023-01-08T09:03:32.824Z,0.90
2023-01-08T09:06:19.557Z,1.00
2023-01-08T09:09:06.468Z,0.93
2023-01-08T09:11:54.895Z,0.50
2023-01-08T09:14:41.699Z,0.70
2023-01-08T09:17:29.698Z,0.70
2023-01-08T09:20:16.687Z,0.80
2023-01-08T09:23:04.275Z,0.60
2023-01-08T09:25:51.461Z,0.70
2023-01-08T09:28:39.116Z,0.70
2023-01-08T09:31:26.664Z,0.80
2023-01-08T09:34:14.900Z,0.80
2023-01-08T09:37:01.728Z,0.60
2023-01-08T09:39:54.356Z,0.63
2023-01-08T09:42:55.818Z,0.50
2023-01-08T09:45:44.063Z,0.95
2023-01-08T09:48:47.232Z,0.70
2023-01-08T09:51:47.665Z,0.90
2023-01-08T09:54:34.668Z,0.80
2023-01-08T09:57:23.478Z,1.02
2023-01-08T10:00:19.251Z,1.00
2023-01-08T10:03:07.549Z,0.60
2023-01-08T10:05:54.282Z,1.20
2023-01-08T10:11:40.828Z,1.20
2023-01-08T10:14:37.015Z,0.73
2023-01-08T10:17:31.307Z,0.88
2023-01-08T10:20:21.576Z,0.85
2023-01-08T10:23:14.657Z,1.15
2023-01-08T10:26:07.514Z,0.98
2023-01-08T10:29:08.009Z,1.10
2023-01-08T10:31:59.260Z,0.80
2023-01-08T10:34:52.544Z,1.15
2023-01-08T10:37:43.388Z,1.02
2023-01-08T10:40:40.979Z,1.00
2023-01-08T10:43:39.532Z,0.90
2023-01-08T10:46:33.435Z,0.90
2023-01-08T10:49:30.456Z,0.65
2023-01-08T10:52:32.948Z,0.93
2023-01-08T10:55:32.707Z,0.93
2023-01-08T10:58:19.754Z,1.05
2023-01-08T11:01:23.345Z,1.33
2023-01-08T11:04:24.893Z,1.20
2023-01-08T11:07:24.976Z,1.15
2023-01-08T11:10:25.321Z,0.88
2023-01-08T11:13:24.902Z,0.93
2023-01-08T11:16:15.235Z,1.00
2023-01-08T11:19:02.491Z,0.88
2023-01-08T11:22:03.486Z,0.90
2023-01-08T11:24:54.308Z,0.80
2023-01-08T11:27:47.395Z,1.25
2023-01-08T11:30:44.504Z,0.93
2023-01-08T11:33:41.488Z,1.00
2023-01-08T11:36:37.271Z,0.80
2023-01-08T11:39:26.211Z,0.93
2023-01-08T11:42:39.653Z,0.73
2023-01-08T11:45:51.212Z,1.00
2023-01-08T11:49:15.276Z,0.93
2023-01-08T11:52:31.743Z,0.95
2023-01-08T11:55:50.821Z,0.80
2023-01-08T11:59:01.163Z,0.98
2023-01-08T12:02:06.137Z,0.80
2023-01-08T12:05:28.232Z,1.15
2023-01-08T12:08:36.709Z,0.85
2023-01-08T12:11:40.669Z,0.93
2023-01-08T12:15:09.201Z,1.35
2023-01-08T12:18:32.188Z,0.85
2023-01-08T12:21:37.624Z,0.80
2023-01-08T12:24:59.982Z,1.00
2023-01-08T12:28:03.391Z,0.82
2023-01-08T12:31:21.380Z,0.75
2023-01-08T12:34:20.475Z,0.52
2023-01-08T12:37:29.576Z,0.63
2023-01-08T12:40:26.776Z,0.90
2023-01-08T12:43:23.761Z,0.73
2023-01-08T12:46:16.885Z,0.88
2023-01-08T12:49:07.534Z,0.73
2023-01-08T12:52:06.001Z,0.73
2023-01-08T12:55:06.512Z,1.00
2023-01-08T12:58:05.834Z,0.60
2023-01-08T13:01:06.882Z,1.20
2023-01-08T13:03:56.505Z,0.60
2023-01-08T13:06:57.436Z,0.80
2023-01-08T13:09:45.244Z,0.80
2023-01-08T13:12:39.290Z,0.98
2023-01-08T13:15:31.976Z,1.23
2023-01-08T13:18:22.325Z,0.70
2023-01-08T13:21:13.505Z,0.35
2023-01-08T13:24:30.084Z,0.50
2023-01-08T13:27:32.443Z,0.65
2023-01-08T13:30:46.383Z,0.35
2023-01-08T13:33:43.257Z,0.73
2023-01-08T13:36:32.149Z,0.52
2023-01-08T13:39:25.103Z,0.30
2023-01-08T13:42:28.284Z,0.30
2023-01-08T13:45:16.623Z,0.40
2023-01-08T13:48:21.019Z,0.50
2023-01-08T13:51:29.431Z,0.70
2023-01-08T13:54:26.508Z,0.63
2023-01-08T13:57:17.927Z,0.57
2023-01-08T14:00:10.658Z,0.65
2023-01-08T14:02:57.655Z,0.77
2023-01-08T14:05:45.577Z,0.55
2023-01-08T14:08:32.561Z,0.70
2023-01-08T14:11:21.611Z,0.55
2023-01-08T14:14:14.471Z,0.70
2023-01-08T14:17:01.297Z,0.80
2023-01-08T14:19:49.387Z,0.68
2023-01-08T14:22:38.115Z,0.50
2023-01-08T14:25:25.461Z,0.63
2023-01-08T14:28:17.441Z,0.52
2023-01-08T14:31:04.267Z,0.57
2023-01-08T14:33:53.308Z,0.50
2023-01-08T14:36:40.534Z,0.57
2023-01-08T14:39:36.277Z,0.55
2023-01-08T14:42:44.278Z,0.70
2023-01-08T14:45:34.279Z,0.50
2023-01-08T14:48:28.446Z,0.57
2023-01-08T14:51:22.780Z,0.52
2023-01-08T14:54:10.260Z,0.65
2023-01-08T14:57:00.915Z,0.73
2023-01-08T14:59:55.663Z,0.60
2023-01-08T15:02:42.665Z,0.90
2023-01-08T15:05:32.064Z,0.98
2023-01-08T15:08:27.325Z,0.80
2023-01-08T15:11:25.656Z,0.75
2023-01-08T15:14:16.521Z,0.70
2023-01-08T15:17:13.162Z,0.60
2023-01-08T15:20:01.853Z,0.70
2023-01-08T15:22:48.838Z,0.77
2023-01-08T15:25:35.650Z,1.17
2023-01-08T15:28:22.660Z,0.85
2023-01-08T15:31:11.329Z,0.90
2023-01-08T15:33:59.885Z,0.80
2023-01-08T15:36:47.403Z,0.80
2023-01-08T15:39:33.938Z,0.90
2023-01-08T15:42:41.433Z,0.80
2023-01-08T15:45:31.826Z,1.05
2023-01-08T15:48:19.901Z,0.75
2023-01-08T15:51:07.483Z,1.13
2023-01-08T15:53:54.923Z,1.10
2023-01-08T15:56:42.200Z,1.40
2023-01-08T15:59:29.971Z,1.30
2023-01-08T16:02:16.881Z,1.20
2023-01-08T16:05:05.660Z,1.20
2023-01-08T16:07:52.717Z,1.17
2023-01-08T16:10:39.446Z,1.20
2023-01-08T16:13:26.220Z,1.47
2023-01-08T16:16:16.108Z,1.10
2023-01-08T16:19:02.593Z,1.10
2023-01-08T16:21:50.567Z,1.03
2023-01-08T16:24:38.152Z,1.00
2023-01-08T16:27:25.822Z,1.00
2023-01-08T16:30:15.538Z,1.20
2023-01-08T16:33:02.352Z,1.10
2023-01-08T16:35:57.843Z,1.13
2023-01-08T16:38:49.343Z,0.93
2023-01-08T16:41:36.799Z,1.10
2023-01-08T16:44:28.453Z,1.10
2023-01-08T16:47:15.097Z,1.27
2023-01-08T16:50:01.727Z,1.10
2023-01-08T16:52:50.743Z,1.60
2023-01-08T16:55:40.503Z,1.60
2023-01-08T16:58:27.355Z,1.63
2023-01-08T17:01:14.929Z,1.50
2023-01-08T17:04:02.536Z,1.23
2023-01-08T17:06:49.113Z,1.20
2023-01-08T17:09:35.746Z,1.40
2023-01-08T17:12:23.940Z,1.10
2023-01-08T17:15:11.815Z,1.20
2023-01-08T17:17:58.902Z,1.10
2023-01-08T17:20:50.820Z,1.00
2023-01-08T17:23:37.527Z,1.60
2023-01-08T17:26:24.098Z,1.83
2023-01-08T17:29:12.348Z,1.77
2023-01-08T17:31:59.046Z,1.37
2023-01-08T17:34:45.906Z,1.17
2023-01-08T17:37:32.782Z,1.17
2023-01-08T17:40:19.729Z,1.00
2023-01-08T17:43:07.826Z,1.00
2023-01-08T17:45:56.561Z,1.10
2023-01-08T17:48:46.851Z,1.00
2023-01-08T17:51:33.597Z,1.00
2023-01-08T17:54:21.065Z,1.00
2023-01-08T17:57:07.595Z,1.00
2023-01-08T17:59:54.178Z,1.10
2023-01-08T18:02:42.095Z,1.03
2023-01-08T18:05:28.852Z,1.07
2023-01-08T18:08:15.548Z,1.07
2023-01-08T18:11:03.380Z,0.73
2023-01-08T18:13:49.812Z,1.10
2023-01-08T18:16:36.567Z,1.07
2023-01-08T18:19:26.086Z,0.83
2023-01-08T18:22:13.009Z,0.80
2023-01-08T18:24:59.782Z,0.97
2023-01-08T18:27:46.254Z,1.10
2023-01-08T18:30:32.680Z,1.07
2023-01-08T18:33:19.579Z,0.90
2023-01-08T18:36:11.602Z,0.87
2023-01-08T18:38:58.660Z,1.00
2023-01-08T18:42:02.643Z,0.70
2023-01-08T18:44:52.515Z,0.93
2023-01-08T18:47:39.526Z,1.33
2023-01-08T18:50:25.866Z,1.10
2023-01-08T18:53:14.055Z,1.10
2023-01-08T18:56:01.106Z,0.93
2023-01-08T18:58:47.587Z,1.00
2023-01-08T19:01:36.410Z,0.90
2023-01-08T19:04:23.157Z,1.00
2023-01-08T19:07:09.949Z,1.03
2023-01-08T19:09:57.905Z,0.93
2023-01-08T19:12:45.150Z,1.03
2023-01-08T19:15:31.960Z,1.00
2023-01-08T19:18:18.252Z,0.73
2023-01-08T19:21:07.522Z,0.80
2023-01-08T19:23:55.274Z,0.67
2023-01-08T19:26:43.532Z,1.10
2023-01-08T19:29:30.735Z,1.00
2023-01-08T19:32:17.469Z,0.90
2023-01-08T19:35:04.082Z,1.30
2023-01-08T19:37:51.121Z,1.20
2023-01-08T19:40:37.597Z,1.10
2023-01-08T19:43:42.917Z,0.90
2023-01-08T19:46:30.059Z,1.23
2023-01-08T19:49:17.007Z,0.97
2023-01-08T19:52:05.923Z,1.30
2023-01-08T19:54:52.550Z,1.20
2023-01-08T19:57:42.477Z,1.10
2023-01-08T20:00:30.374Z,1.10
2023-01-08T20:03:21.377Z,1.37
2023-01-08T20:06:10.203Z,1.13
2023-01-08T20:09:03.044Z,1.20
2023-01-08T20:11:49.922Z,1.00
2023-01-08T20:14:36.986Z,1.20
2023-01-08T20:17:25.458Z,1.30
2023-01-08T20:20:13.024Z,1.50
2023-01-08T20:23:00.121Z,1.40
2023-01-08T20:25:46.793Z,1.37
2023-01-08T20:28:34.625Z,1.00
2023-01-08T20:31:26.224Z,1.13
2023-01-08T20:34:17.154Z,1.00
2023-01-08T20:37:07.606Z,1.00
2023-01-08T20:39:54.576Z,1.00
2023-01-08T20:42:45.776Z,1.07
2023-01-08T20:45:33.111Z,1.20
2023-01-08T20:48:20.583Z,1.17
2023-01-08T20:51:09.652Z,1.37
2023-01-08T20:53:56.706Z,1.10
2023-01-08T20:56:45.193Z,1.10
2023-01-08T20:59:32.327Z,1.50
2023-01-08T21:02:19.663Z,1.20
2023-01-08T21:05:07.435Z,1.20
2023-01-08T21:07:55.651Z,1.30
2023-01-08T21:10:42.388Z,0.90
2023-01-08T21:13:30.109Z,1.20
2023-01-08T21:16:22.795Z,0.90
2023-01-08T21:19:12.050Z,1.00
2023-01-08T21:21:59.025Z,1.07
2023-01-08T21:24:49.824Z,1.17
2023-01-08T21:27:37.055Z,0.90
2023-01-08T21:30:24.365Z,0.90
2023-01-08T21:33:11.403Z,1.07
2023-01-08T21:35:58.388Z,1.00
2023-01-08T21:38:46.190Z,0.90
2023-01-08T21:42:06.627Z,1.20
2023-01-08T21:45:11.463Z,0.97
2023-01-08T21:47:59.221Z,1.07
2023-01-08T21:50:46.185Z,0.97
2023-01-08T21:53:32.459Z,0.80
2023-01-08T21:56:19.936Z,1.00
2023-01-08T21:59:08.184Z,0.97
2023-01-08T22:01:55.326Z,0.97
2023-01-08T22:04:41.974Z,1.30
2023-01-08T22:07:29.004Z,1.37
2023-01-08T22:10:16.056Z,0.73
2023-01-08T22:13:03.823Z,0.80
2023-01-08T22:16:01.130Z,0.90
2023-01-08T22:18:47.816Z,0.90
2023-01-08T22:21:35.026Z,0.93
2023-01-08T22:24:22.131Z,0.87
2023-01-08T22:27:10.051Z,0.80
2023-01-08T22:29:57.061Z,0.70
2023-01-08T22:32:45.679Z,0.80
2023-01-08T22:35:32.713Z,0.87
2023-01-08T22:38:19.747Z,0.90
2023-01-08T22:41:16.523Z,0.93
2023-01-08T22:44:03.287Z,0.97
2023-01-08T22:46:50.385Z,0.70
2023-01-08T22:49:39.309Z,0.83
2023-01-08T22:52:26.396Z,0.63
2023-01-08T22:55:13.413Z,0.80
2023-01-08T22:58:00.660Z,0.80
2023-01-08T23:00:47.573Z,0.70
2023-01-08T23:03:35.045Z,0.83
2023-01-08T23:06:25.405Z,0.67
2023-01-08T23:09:12.612Z,1.00
2023-01-08T23:11:59.177Z,0.90
2023-01-08T23:14:46.223Z,0.80
2023-01-08T23:17:47.759Z,0.70
2023-01-08T23:20:39.047Z,0.83
2023-01-08T23:23:27.639Z,0.77
2023-01-08T23:26:19.385Z,1.33
2023-01-08T23:29:06.341Z,1.00
2023-01-08T23:31:53.135Z,1.00
2023-01-08T23:34:40.392Z,0.80
2023-01-08T23:37:27.457Z,0.90
2023-01-08T23:40:17.226Z,1.00
2023-01-08T23:43:04.544Z,1.00
2023-01-08T23:45:55.856Z,0.77
2023-01-08T23:48:43.457Z,1.07
2023-01-08T23:51:34.893Z,0.97
2023-01-08T23:54:27.792Z,1.10
2023-01-08T23:57:19.404Z,0.87
